Map

Track Data

SID SEASON NUMBER BASIN SUBBASIN NAME ISO_TIME NATURE LAT LON WMO_WIND WMO_PRES WMO_AGENCY TRACK_TYPE DIST2LAND LANDFALL IFLAG USA_AGENCY USA_ATCF_ID USA_LAT USA_LON USA_RECORD USA_STATUS USA_WIND USA_PRES USA_SSHS USA_R34_NE USA_R34_SE USA_R34_SW USA_R34_NW USA_R50_NE USA_R50_SE USA_R50_SW USA_R50_NW USA_R64_NE USA_R64_SE USA_R64_SW USA_R64_NW USA_POCI USA_ROCI USA_RMW USA_EYE TOKYO_LAT TOKYO_LON TOKYO_GRADE TOKYO_WIND TOKYO_PRES TOKYO_R50_DIR TOKYO_R50_LONG TOKYO_R50_SHORT TOKYO_R30_DIR TOKYO_R30_LONG TOKYO_R30_SHORT TOKYO_LAND CMA_LAT CMA_LON CMA_CAT CMA_WIND CMA_PRES HKO_LAT HKO_LON HKO_CAT HKO_WIND HKO_PRES NEWDELHI_LAT NEWDELHI_LON NEWDELHI_GRADE NEWDELHI_WIND NEWDELHI_PRES NEWDELHI_CI NEWDELHI_DP NEWDELHI_POCI REUNION_LAT REUNION_LON REUNION_TYPE REUNION_WIND REUNION_PRES REUNION_TNUM REUNION_CI REUNION_RMW REUNION_R34_NE REUNION_R34_SE REUNION_R34_SW REUNION_R34_NW REUNION_R50_NE REUNION_R50_SE REUNION_R50_SW REUNION_R50_NW REUNION_R64_NE REUNION_R64_SE REUNION_R64_SW REUNION_R64_NW BOM_LAT BOM_LON BOM_TYPE BOM_WIND BOM_PRES BOM_TNUM BOM_CI BOM_RMW BOM_R34_NE BOM_R34_SE BOM_R34_SW BOM_R34_NW BOM_R50_NE BOM_R50_SE BOM_R50_SW BOM_R50_NW BOM_R64_NE BOM_R64_SE BOM_R64_SW BOM_R64_NW BOM_ROCI BOM_POCI BOM_EYE BOM_POS_METHOD BOM_PRES_METHOD NADI_LAT NADI_LON NADI_CAT NADI_WIND NADI_PRES WELLINGTON_LAT WELLINGTON_LON WELLINGTON_WIND WELLINGTON_PRES DS824_LAT DS824_LON DS824_STAGE DS824_WIND DS824_PRES TD9636_LAT TD9636_LON TD9636_STAGE TD9636_WIND TD9636_PRES TD9635_LAT TD9635_LON TD9635_WIND TD9635_PRES TD9635_ROCI NEUMANN_LAT NEUMANN_LON NEUMANN_CLASS NEUMANN_WIND NEUMANN_PRES MLC_LAT MLC_LON MLC_CLASS MLC_WIND MLC_PRES USA_GUST BOM_GUST BOM_GUST_PER REUNION_GUST REUNION_GUST_PER USA_SEAHGT USA_SEARAD_NE USA_SEARAD_SE USA_SEARAD_SW USA_SEARAD_NW STORM_SPEED STORM_DIR
1897357S17121 1898 54 SI WA NOT_NAMED 1897-12-22 12:00:00 NR -17.4000 120.900 main 129 118 __________O___ -1 -17.4000 120.900 7 2 106
1897357S17121 1898 54 SI WA NOT_NAMED 1897-12-22 15:00:00 NR -17.4261 120.999 main 118 117 __________P___ -1 -17.4261 120.999 7 2 117
1897357S17121 1898 54 SI WA NOT_NAMED 1897-12-22 18:00:00 NR -17.4717 121.049 main 117 106 __________P___ -1 -17.4717 121.049 7 1 186
1897357S17121 1898 54 SI WA NOT_NAMED 1897-12-22 21:00:00 NR -17.5565 120.999 main 116 116 __________P___ -1 -17.5565 120.999 7 3 226
1897357S17121 1898 54 SI WA NOT_NAMED 1897-12-23 00:00:00 NR -17.7000 120.800 main 138 138 __________O___ -1 -17.7000 120.800 7 7 237
1897357S17121 1898 54 SI WA NOT_NAMED 1897-12-23 03:00:00 NR -17.9112 120.422 main 158 158 __________P___ -1 -17.9112 120.422 7 10 241
1897357S17121 1898 54 SI WA NOT_NAMED 1897-12-23 06:00:00 NR -18.1589 119.914 main 187 181 __________P___ -1 -18.1589 119.914 7 11 244
1897357S17121 1898 54 SI WA NOT_NAMED 1897-12-23 09:00:00 NR -18.4019 119.350 main 186 169 __________P___ -1 -18.4019 119.350 7 11 247
1897357S17121 1898 54 SI WA NOT_NAMED 1897-12-23 12:00:00 NR -18.6000 118.800 main 170 165 __________O___ -1 -18.6000 118.800 7 10 252
1897357S17121 1898 54 SI WA NOT_NAMED 1897-12-23 15:00:00 NR -18.7121 118.359 main 172 172 __________P___ -1 -18.7121 118.359 7 8 258
1897357S17121 1898 54 SI WA NOT_NAMED 1897-12-23 18:00:00 NR -18.7745 117.947 main 180 180 __________P___ -1 -18.7745 117.947 7 8 263
1897357S17121 1898 54 SI WA NOT_NAMED 1897-12-23 21:00:00 NR -18.7997 117.562 main 186 186 __________P___ -1 -18.7997 117.562 7 7 268
1897357S17121 1898 54 SI WA NOT_NAMED 1897-12-24 00:00:00 NR -18.8000 117.200 main 202 201 __________O___ -1 -18.8000 117.200 7 7 272
1897357S17121 1898 54 SI WA NOT_NAMED 1897-12-24 03:00:00 NR -18.7717 116.865 main 201 201 __________P___ -1 -18.7717 116.865 7 6 277
1897357S17121 1898 54 SI WA NOT_NAMED 1897-12-24 06:00:00 NR -18.7268 116.549 main 213 213 __________P___ -1 -18.7268 116.549 7 6 277
1897357S17121 1898 54 SI WA NOT_NAMED 1897-12-24 09:00:00 NR -18.6935 116.234 main 218 218 __________P___ -1 -18.6935 116.234 7 6 272
1897357S17121 1898 54 SI WA NOT_NAMED 1897-12-24 12:00:00 NR -18.7000 115.900 main 228 228 __________O___ -1 -18.7000 115.900 7 7 264
1897357S17121 1898 54 SI WA NOT_NAMED 1897-12-24 15:00:00 NR -18.7662 115.465 main 237 237 __________P___ -1 -18.7662 115.465 7 9 258
1897357S17121 1898 54 SI WA NOT_NAMED 1897-12-24 18:00:00 NR -18.8759 115.018 main 256 256 __________P___ -1 -18.8759 115.018 7 8 252
1897357S17121 1898 54 SI WA NOT_NAMED 1897-12-24 21:00:00 NR -19.0225 114.612 main 270 261 __________P___ -1 -19.0225 114.612 7 8 244
1897357S17121 1898 54 SI WA NOT_NAMED 1897-12-25 00:00:00 NR -19.2000 114.300 main 270 267 __________O___ -1 -19.2000 114.300 7 6 231
1897357S17121 1898 54 SI WA NOT_NAMED 1897-12-25 03:00:00 NR -19.3876 114.129 main 267 249 __________P___ -1 -19.3876 114.129 7 5 209
1897357S17121 1898 54 SI WA NOT_NAMED 1897-12-25 06:00:00 NR -19.6044 114.057 main 249 228 __________P___ -1 -19.6044 114.057 7 5 188
1897357S17121 1898 54 SI WA NOT_NAMED 1897-12-25 09:00:00 NR -19.8440 114.057 main 228 197 __________P___ -1 -19.8440 114.057 7 5 175
1897357S17121 1898 54 SI WA NOT_NAMED 1897-12-25 12:00:00 NR -20.1000 114.100 main 197 175 __________O___ -1 -20.1000 114.100 7 5 178
1897357S17121 1898 54 SI WA NOT_NAMED 1897-12-25 15:00:00 NR -20.3520 114.075 main 164 143 __________P___ -1 -20.3520 114.075 7 5 0
1897357S17121 1898 54 SI WA NOT_NAMED 1897-12-25 18:00:00 NR -20.6191 114.094 main 143 108 __________P___ -1 -20.6191 114.094 7 6 169
1897357S17121 1898 54 SI WA NOT_NAMED 1897-12-25 21:00:00 NR -20.9017 114.191 main 108 70 __________P___ -1 -20.9017 114.191 7 7 154
1897357S17121 1898 54 SI WA NOT_NAMED 1897-12-26 00:00:00 NR -21.2000 114.400 main 70 30 __________O___ -1 -21.2000 114.400 7 8 139
1897357S17121 1898 54 SI WA NOT_NAMED 1897-12-26 03:00:00 NR -21.5154 114.763 main 24 0 __________P___ -1 -21.5154 114.763 7 10 130
1897357S17121 1898 54 SI WA NOT_NAMED 1897-12-26 06:00:00 NR -21.8436 115.236 main 0 0 __________P___ -1 -21.8436 115.236 7 11 125
1897357S17121 1898 54 SI WA NOT_NAMED 1897-12-26 09:00:00 NR -22.1748 115.767 main 0 0 __________P___ -1 -22.1748 115.767 7 12 124
1897357S17121 1898 54 SI WA NOT_NAMED 1897-12-26 12:00:00 NR -22.5000 116.300 main 0 0 __________O___ -1 -22.5000 116.300 7 11 125
1897357S17121 1898 54 SI WA NOT_NAMED 1897-12-26 15:00:00 NR -22.8108 116.758 main 0 0 __________P___ -1 -22.8108 116.758 7 10 126
1897357S17121 1898 54 SI WA NOT_NAMED 1897-12-26 18:00:00 NR -23.1143 117.208 main 0 0 __________P___ -1 -23.1143 117.208 7 10 126
1897357S17121 1898 54 SI WA NOT_NAMED 1897-12-26 21:00:00 NR -23.4108 117.655 main 0 0 __________P___ -1 -23.4108 117.655 7 10 126
1897357S17121 1898 54 SI WA NOT_NAMED 1897-12-27 00:00:00 NR -23.7000 118.100 main 0 0 __________O___ -1 -23.7000 118.100 7 10 125
1897357S17121 1898 54 SI WA NOT_NAMED 1897-12-27 03:00:00 NR -23.9819 118.559 main 0 0 __________P___ -1 -23.9819 118.559 7 10 124
1897357S17121 1898 54 SI WA NOT_NAMED 1897-12-27 06:00:00 NR -24.2572 119.016 main 0 0 __________P___ -1 -24.2572 119.016 7 10 124
1897357S17121 1898 54 SI WA NOT_NAMED 1897-12-27 09:00:00 NR -24.5289 119.465 main 0 0 __________P___ -1 -24.5289 119.465 7 10 124
1897357S17121 1898 54 SI WA NOT_NAMED 1897-12-27 12:00:00 NR -24.8000 119.900 main 0 0 __________O___ -1 -24.8000 119.900 7 9 125
1897357S17121 1898 54 SI WA NOT_NAMED 1897-12-27 15:00:00 NR -25.0490 120.268 main 0 0 __________P___ -1 -25.0490 120.268 7 8 127
1897357S17121 1898 54 SI WA NOT_NAMED 1897-12-27 18:00:00 NR -25.3025 120.629 main 0 0 __________P___ -1 -25.3025 120.629 7 9 128
1897357S17121 1898 54 SI WA NOT_NAMED 1897-12-27 21:00:00 NR -25.5799 121.025 main 0 0 __________P___ -1 -25.5799 121.025 7 10 127
1897357S17121 1898 54 SI WA NOT_NAMED 1897-12-28 00:00:00 NR -25.9000 121.500 main 0 0 __________O___ -1 -25.9000 121.500 7 12 126
1897357S17121 1898 54 SI WA NOT_NAMED 1897-12-28 03:00:00 NR -26.2826 122.113 main 0 0 __________P___ -1 -26.2826 122.113 7 14 124
1897357S17121 1898 54 SI WA NOT_NAMED 1897-12-28 06:00:00 NR -26.7060 122.809 main 0 0 __________P___ -1 -26.7060 122.809 7 16 124
1897357S17121 1898 54 SI WA NOT_NAMED 1897-12-28 09:00:00 NR -27.1512 123.551 main 0 0 __________P___ -1 -27.1512 123.551 7 16 124
1897357S17121 1898 54 SI WA NOT_NAMED 1897-12-28 12:00:00 NR -27.6000 124.300 main 0 0 __________O___ -1 -27.6000 124.300 7 16 124
1897357S17121 1898 54 SI WA NOT_NAMED 1897-12-28 15:00:00 NR -28.0199 125.002 main 0 0 __________P___ -1 -28.0199 125.002 7 15 124
1897357S17121 1898 54 SI WA NOT_NAMED 1897-12-28 18:00:00 NR -28.4411 125.703 main 0 0 __________P___ -1 -28.4411 125.703 7 15 125
1897357S17121 1898 54 SI WA NOT_NAMED 1897-12-28 21:00:00 NR -28.8668 126.402 main 0 0 __________P___ -1 -28.8668 126.402 7 15 125
1897357S17121 1898 54 SI WA NOT_NAMED 1897-12-29 00:00:00 NR -29.3000 127.100 main 0 0 __________O___ -1 -29.3000 127.100 7 15 126
1897357S17121 1898 54 SI WA NOT_NAMED 1897-12-29 03:00:00 NR -29.7667 127.820 main 0 0 __________P___ -1 -29.7667 127.820 7 16 127
1897357S17121 1898 54 SI WA NOT_NAMED 1897-12-29 06:00:00 NR -30.2371 128.537 main 0 0 __________P___ -1 -30.2371 128.537 7 15 127
1897357S17121 1898 54 SI WA NOT_NAMED 1897-12-29 09:00:00 NR -30.6888 129.235 main 0 0 __________P___ -1 -30.6888 129.235 7 15 126
1897357S17121 1898 54 SI WA NOT_NAMED 1897-12-29 12:00:00 NR -31.1000 129.900 main 0 0 __________O___ -1 -31.1000 129.900 7 12 124
1897357S17121 1898 54 SI WA NOT_NAMED 1897-12-29 15:00:00 NR -31.3643 130.417 main 0 0 __________P___ -1 -31.3643 130.417 7 10 120
1897357S17121 1898 54 SI WA NOT_NAMED 1897-12-29 18:00:00 NR -31.6010 130.911 main 9 9 __________P___ -1 -31.6010 130.911 7 10 120
1897357S17121 1898 54 SI WA NOT_NAMED 1897-12-29 21:00:00 NR -31.8877 131.473 main 33 24 __________P___ -1 -31.8877 131.473 7 13 123
1897357S17121 1898 54 SI WA NOT_NAMED 1897-12-30 00:00:00 NR -32.3000 132.200 main 33 33 __________O___ -1 -32.3000 132.200 7 18 125
1897357S17121 1898 54 SI WA NOT_NAMED 1897-12-30 03:00:00 NR -32.9211 133.241 main 78 29 __________P___ -1 -32.9211 133.241 7 23 126
1897357S17121 1898 54 SI WA NOT_NAMED 1897-12-30 06:00:00 NR -33.6639 134.463 main 29 0 __________P___ -1 -33.6639 134.463 7 26 126
1897357S17121 1898 54 SP EA NOT_NAMED 1897-12-30 09:00:00 NR -34.4738 135.780 main 0 0 __________P___ -1 -34.4738 135.780 7 27 127
1897357S17121 1898 54 SP EA NOT_NAMED 1897-12-30 12:00:00 NR -35.3000 137.100 main 11 0 __________O___ -1 -35.3000 137.100 7 26 129
1897357S17121 1898 54 SP EA NOT_NAMED 1897-12-30 15:00:00 NR -36.1400 138.283 main 34 28 __________P___ -1 -36.1400 138.283 7 25 131
1897357S17121 1898 54 SP EA NOT_NAMED 1897-12-30 18:00:00 NR -36.9785 139.453 main 17 0 __________P___ -1 -36.9785 139.453 7 25 131
1897357S17121 1898 54 SP EA NOT_NAMED 1897-12-30 21:00:00 NR -37.7528 140.622 main 0 0 __________P___ -1 -37.7528 140.622 7 23 127
1897357S17121 1898 54 SP EA NOT_NAMED 1897-12-31 00:00:00 NR -38.4000 141.800 main 11 11 __________O___ -1 -38.4000 141.800 7 22 121
1897357S17121 1898 54 SP EA NOT_NAMED 1897-12-31 03:00:00 NR -38.8746 143.021 main 28 11 __________P___ -1 -38.8746 143.021 7 21 113
1897357S17121 1898 54 SP EA NOT_NAMED 1897-12-31 06:00:00 NR -39.2144 144.239 main 61 61 __________P___ -1 -39.2144 144.239 7 20 107
1897357S17121 1898 54 SP EA NOT_NAMED 1897-12-31 09:00:00 NR -39.4469 145.437 main 70 47 __________P___ -1 -39.4469 145.437 7 19 102
1897357S17121 1898 54 SP EA NOT_NAMED 1897-12-31 12:00:00 NR -39.6000 146.600 main 58 58 __________O___ -1 -39.6000 146.600 7 18 98
1897357S17121 1898 54 SP EA NOT_NAMED 1897-12-31 15:00:00 NR -39.6993 147.719 main 123 119 __________P___ -1 -39.6993 147.719 7 17 95
1897357S17121 1898 54 SP EA NOT_NAMED 1897-12-31 18:00:00 NR -39.7587 148.800 main 126 126 __________P___ -1 -39.7587 148.800 7 16 93
1897357S17121 1898 54 SP EA NOT_NAMED 1897-12-31 21:00:00 NR -39.7889 149.857 main 184 184 __________P___ -1 -39.7889 149.857 7 16 91
1897357S17121 1898 54 SP EA NOT_NAMED 1898-01-01 00:00:00 NR -39.8000 150.900 main 249 __________O___ -1 -39.8000 150.900 7 16 91

About IBTrACS Database

This database is a web-friendly format of International Best Track Archive for Climate Stewardship (IBTrACS), a global best track data archive curated by NOAA dating back to 1842.

Updated: 2021-10-25